Time;durP1;ratioP1;P1;durP2;ratioP2;P2;SDS_P1;SDS_P2;PMS_P1;PMS_P2;Temp;Humidity;BMP_temperature;BMP_pressure;BME280_temperature;BME280_humidity;BME280_pressure;Samples;Min_cycle;Max_cycle;Signal;HPM_P1;HPM_P2
2023/04/08 00:00:14;;;;;;;9.40;6.40;;;;;;;11.55;63.76;100956.94;108100;1288;22046;-63
2023/04/08 00:02:40;;;;;;;9.30;6.00;;;;;;;11.51;63.86;100957.85;108129;1288;22977;-63
2023/04/08 00:05:07;;;;;;;8.30;5.50;;;;;;;11.49;63.91;100961.55;108132;1288;21976;-63
2023/04/08 00:07:33;;;;;;;8.50;5.40;;;;;;;11.48;63.84;100959.29;108073;1289;22030;-67
2023/04/08 00:09:59;;;;;;;11.10;6.40;;;;;;;11.44;63.58;100964.23;107994;1289;22163;-63
2023/04/08 00:12:25;;;;;;;9.70;6.30;;;;;;;11.40;63.61;100960.92;107994;1289;21991;-68
2023/04/08 00:14:51;;;;;;;9.90;6.40;;;;;;;11.34;63.50;100963.41;108092;1289;21998;-68
2023/04/08 00:17:17;;;;;;;8.20;6.00;;;;;;;11.26;63.34;100968.55;108086;1288;22006;-64
2023/04/08 00:19:43;;;;;;;7.90;5.70;;;;;;;11.20;63.56;100970.88;108094;1288;21992;-65
2023/04/08 00:22:10;;;;;;;8.70;6.50;;;;;;;11.14;63.56;100969.14;108039;1288;21997;-67
2023/04/08 00:24:36;;;;;;;8.80;5.70;;;;;;;11.10;64.08;100967.58;108119;1288;21999;-67
2023/04/08 00:27:02;;;;;;;9.50;6.00;;;;;;;11.08;64.02;100966.89;108155;1288;22006;-63
2023/04/08 00:29:28;;;;;;;8.50;5.50;;;;;;;11.05;63.84;100963.92;108027;1289;24179;-64
2023/04/08 00:31:54;;;;;;;10.70;6.40;;;;;;;11.00;63.81;100964.48;108025;1289;22005;-64
2023/04/08 00:34:19;;;;;;;10.90;6.60;;;;;;;10.97;63.93;100963.25;107982;1289;21995;-66
2023/04/08 00:36:48;;;;;;;7.80;5.70;;;;;;;10.94;63.85;100960.81;108101;1288;22001;-63
2023/04/08 00:39:13;;;;;;;10.20;7.00;;;;;;;10.90;63.97;100959.77;108127;1288;21986;-63
2023/04/08 00:41:40;;;;;;;11.10;6.40;;;;;;;10.84;63.96;100959.27;108120;1288;22001;-64
2023/04/08 00:44:08;;;;;;;9.50;6.10;;;;;;;10.78;63.96;100957.55;108096;1288;21984;-68
2023/04/08 00:46:35;;;;;;;8.50;6.10;;;;;;;10.76;64.04;100958.77;108131;1288;22026;-64
2023/04/08 00:49:01;;;;;;;8.90;5.80;;;;;;;10.75;64.15;100958.25;108042;1289;21990;-63
2023/04/08 00:51:30;;;;;;;9.20;6.70;;;;;;;10.71;64.04;100955.98;107980;1289;21994;-63
2023/04/08 00:53:55;;;;;;;10.40;6.90;;;;;;;10.65;63.90;100956.88;107991;1289;21992;-67
2023/04/08 00:56:22;;;;;;;10.30;6.50;;;;;;;10.65;64.08;100956.17;108017;1289;21992;-63
2023/04/08 00:58:47;;;;;;;11.90;6.20;;;;;;;10.62;63.97;100956.88;107946;1289;22030;-63
2023/04/08 01:01:43;;;;;;;9.30;6.30;;;;;;;10.62;63.86;100958.81;107994;1289;22046;-62
2023/04/08 01:04:16;;;;;;;11.80;6.60;;;;;;;10.57;63.93;100956.90;107975;1289;21992;-66
2023/04/08 01:07:02;;;;;;;10.60;6.20;;;;;;;10.45;64.54;100959.92;108069;1289;22018;-63
2023/04/08 01:09:32;;;;;;;11.00;7.20;;;;;;;10.39;64.57;100958.52;107226;1289;1002574;-63
2023/04/08 01:11:59;;;;;;;12.00;7.60;;;;;;;10.36;64.73;100958.70;107796;1289;21997;-63
2023/04/08 01:14:26;;;;;;;12.30;7.80;;;;;;;10.32;64.88;100958.17;107815;1289;21995;-64
2023/04/08 01:16:54;;;;;;;9.60;7.30;;;;;;;10.29;64.90;100960.46;107844;1289;21990;-63
2023/04/08 01:19:26;;;;;;;11.50;7.80;;;;;;;10.25;64.93;100962.73;107760;1289;22002;-63
2023/04/08 01:21:51;;;;;;;11.10;7.10;;;;;;;10.23;65.23;100963.97;108027;1289;22007;-66
2023/04/08 01:24:22;;;;;;;10.30;7.10;;;;;;;10.24;65.23;100965.72;107714;1289;21997;-67
2023/04/08 01:26:48;;;;;;;14.20;7.60;;;;;;;10.25;65.53;100963.27;107827;1288;22962;-66
2023/04/08 01:29:14;;;;;;;11.70;7.80;;;;;;;10.20;65.53;100966.25;107824;1288;22012;-66
2023/04/08 01:31:40;;;;;;;12.20;8.00;;;;;;;10.14;65.49;100967.48;107874;1288;22000;-63
2023/04/08 01:34:05;;;;;;;12.50;8.10;;;;;;;10.06;65.33;100964.87;107881;1288;21992;-70
2023/04/08 01:36:31;;;;;;;11.70;7.80;;;;;;;10.02;65.30;100964.86;107821;1288;21991;-63
2023/04/08 01:38:59;;;;;;;10.90;7.50;;;;;;;10.02;65.47;100965.21;107787;1288;22027;-67
2023/04/08 01:41:25;;;;;;;12.80;8.40;;;;;;;10.03;65.61;100963.29;108151;1288;22687;-63
2023/04/08 01:43:57;;;;;;;10.00;7.30;;;;;;;10.02;65.70;100966.63;107902;1288;21987;-63
2023/04/08 01:46:22;;;;;;;11.90;7.70;;;;;;;10.00;66.14;100968.72;108045;1289;21992;-67
2023/04/08 01:48:48;;;;;;;14.90;8.40;;;;;;;9.98;67.28;100970.65;107078;1289;1002058;-62
2023/04/08 01:51:14;;;;;;;11.50;8.00;;;;;;;9.97;67.87;100969.77;107852;1289;21991;-67
2023/04/08 01:53:40;;;;;;;11.50;7.70;;;;;;;10.00;67.41;100969.42;108031;1289;23682;-67
2023/04/08 01:56:10;;;;;;;11.30;7.60;;;;;;;10.06;67.05;100972.40;107824;1282;21985;-63
2023/04/08 01:58:38;;;;;;;11.70;7.40;;;;;;;10.08;66.86;100968.02;108105;1288;22001;-66
2023/04/08 02:01:13;;;;;;;10.90;7.40;;;;;;;10.10;66.95;100971.88;107888;1289;22463;-63
2023/04/08 02:03:41;;;;;;;10.60;7.20;;;;;;;10.11;67.30;100970.83;108006;1289;21992;-68
2023/04/08 02:06:07;;;;;;;12.90;8.30;;;;;;;10.10;67.62;100969.42;107921;1289;22026;-63
2023/04/08 02:08:34;;;;;;;12.40;8.10;;;;;;;10.10;67.46;100967.15;107994;1289;21989;-65
2023/04/08 02:11:02;;;;;;;12.80;7.80;;;;;;;10.16;67.88;100972.92;108106;1289;23059;-66
2023/04/08 02:13:29;;;;;;;13.80;8.30;;;;;;;10.17;67.37;100970.11;108004;1289;21994;-66
2023/04/08 02:16:22;;;;;;;12.60;7.20;;;;;;;10.17;67.62;100971.52;108000;1289;21999;-62
2023/04/08 02:18:55;;;;;;;12.60;8.20;;;;;;;10.18;67.29;100969.75;107736;1289;21998;-66
2023/04/08 02:21:21;;;;;;;9.50;6.90;;;;;;;10.21;67.10;100968.89;108016;1289;21977;-62
2023/04/08 02:23:49;;;;;;;9.70;7.20;;;;;;;10.20;66.86;100971.15;107775;1289;22026;-63
2023/04/08 02:26:15;;;;;;;13.30;8.00;;;;;;;10.19;66.90;100971.69;107851;1289;21986;-62
2023/04/08 02:28:42;;;;;;;10.80;7.60;;;;;;;10.18;66.93;100976.77;107775;1289;22009;-63
2023/04/08 02:31:14;;;;;;;12.80;8.00;;;;;;;10.17;66.88;100976.08;108064;1288;21988;-63
2023/04/08 02:33:41;;;;;;;11.60;7.60;;;;;;;10.21;67.01;100978.17;108113;1288;23760;-66
2023/04/08 02:36:07;;;;;;;10.80;7.20;;;;;;;10.23;66.83;100980.80;107833;1288;22951;-63
2023/04/08 02:38:39;;;;;;;9.50;6.90;;;;;;;10.22;66.50;100979.58;108127;1288;22029;-63
2023/04/08 02:41:05;;;;;;;10.00;7.50;;;;;;;10.20;66.30;100982.91;108098;1288;21986;-67
2023/04/08 02:43:31;;;;;;;10.30;7.70;;;;;;;10.19;66.21;100982.39;108114;1288;21988;-66
2023/04/08 02:46:09;;;;;;;9.10;6.90;;;;;;;10.19;66.09;100981.15;108159;1288;22449;-67
2023/04/08 02:48:36;;;;;;;10.40;7.10;;;;;;;10.16;66.55;100985.20;107844;1277;22030;-67
2023/04/08 02:51:02;;;;;;;11.00;7.50;;;;;;;10.16;66.60;100983.45;108096;1288;21999;-63
2023/04/08 02:53:29;;;;;;;11.30;7.40;;;;;;;10.19;66.58;100980.28;108184;1288;21992;-64
2023/04/08 02:55:55;;;;;;;10.50;7.20;;;;;;;10.19;66.38;100978.70;108098;1288;21985;-64
2023/04/08 02:58:20;;;;;;;10.70;7.50;;;;;;;10.18;66.08;100981.17;108166;1286;22024;-67
2023/04/08 03:00:49;;;;;;;10.90;7.20;;;;;;;10.19;66.32;100983.98;108125;1288;21986;-67
2023/04/08 03:03:17;;;;;;;11.50;8.00;;;;;;;10.21;66.35;100986.77;108138;1288;21986;-63
2023/04/08 03:05:43;;;;;;;10.90;7.60;;;;;;;10.21;66.15;100985.72;108114;1288;22000;-63
2023/04/08 03:08:09;;;;;;;11.80;8.50;;;;;;;10.22;66.21;100986.07;108141;1288;21992;-67
2023/04/08 03:10:35;;;;;;;11.40;7.60;;;;;;;10.25;66.52;100988.88;108151;1288;21993;-63
2023/04/08 03:13:01;;;;;;;10.00;7.80;;;;;;;10.30;66.59;100991.33;108102;1288;22004;-64
2023/04/08 03:15:27;;;;;;;10.40;7.90;;;;;;;10.33;66.33;100992.37;108102;1288;22176;-66
2023/04/08 03:17:53;;;;;;;11.40;7.80;;;;;;;10.35;66.54;100992.21;108116;1288;22029;-63
2023/04/08 03:20:18;;;;;;;10.00;7.00;;;;;;;10.40;66.61;100996.94;108178;1288;21991;-67
2023/04/08 03:22:51;;;;;;;12.40;7.40;;;;;;;10.33;67.32;101000.09;108185;1288;21990;-63
2023/04/08 03:25:17;;;;;;;10.50;8.10;;;;;;;10.30;68.15;101001.31;108136;1288;21988;-67
2023/04/08 03:27:42;;;;;;;12.10;8.00;;;;;;;10.32;68.24;100999.39;108171;1288;22457;-64
2023/04/08 03:30:09;;;;;;;10.40;7.50;;;;;;;10.40;67.98;100995.53;108143;1288;22026;-64
2023/04/08 03:32:36;;;;;;;10.10;7.50;;;;;;;10.49;67.66;100994.66;108185;1288;21987;-67
2023/04/08 03:35:03;;;;;;;8.80;7.00;;;;;;;10.54;67.57;100994.66;108107;1288;21993;-67
2023/04/08 03:37:30;;;;;;;9.10;7.10;;;;;;;10.60;67.81;100994.27;108156;1288;23612;-66
2023/04/08 03:39:56;;;;;;;9.50;7.10;;;;;;;10.65;67.97;101000.58;108161;1288;21989;-64
2023/04/08 03:42:22;;;;;;;9.20;6.80;;;;;;;10.71;68.28;101002.67;108185;1288;21994;-65
2023/04/08 03:44:49;;;;;;;9.40;6.50;;;;;;;10.74;68.21;101006.54;108144;1288;22004;-65
2023/04/08 03:47:18;;;;;;;8.60;6.60;;;;;;;10.76;68.03;101008.27;108124;1288;21992;-67
2023/04/08 03:49:43;;;;;;;9.20;6.50;;;;;;;10.78;68.21;101005.11;108133;1288;21998;-67
2023/04/08 03:52:09;;;;;;;11.40;7.70;;;;;;;10.79;68.39;101008.63;108144;1277;21989;-66
2023/04/08 03:54:37;;;;;;;10.10;6.90;;;;;;;10.80;68.51;101017.05;108148;1288;21989;-68
2023/04/08 03:57:03;;;;;;;11.20;6.90;;;;;;;10.80;68.39;101021.45;108136;1288;21993;-64
2023/04/08 03:59:29;;;;;;;12.20;6.80;;;;;;;10.77;68.34;101023.55;108092;1288;22002;-65
2023/04/08 04:01:55;;;;;;;9.50;7.20;;;;;;;10.77;68.42;101021.61;108151;1288;22297;-64
2023/04/08 04:04:21;;;;;;;10.10;7.00;;;;;;;10.77;68.55;101018.64;108125;1288;21992;-67
2023/04/08 04:06:49;;;;;;;9.10;6.40;;;;;;;10.78;68.66;101020.73;108137;1288;22010;-66
2023/04/08 04:09:15;;;;;;;10.40;7.00;;;;;;;10.78;68.74;101017.23;108129;1288;22008;-66
2023/04/08 04:11:41;;;;;;;10.10;7.70;;;;;;;10.81;69.04;101020.91;107396;1276;1004051;-65
2023/04/08 04:14:10;;;;;;;9.60;6.90;;;;;;;10.90;68.81;101020.34;108129;1288;21988;-68
2023/04/08 04:16:37;;;;;;;12.40;7.30;;;;;;;10.98;69.00;101018.57;108220;1288;22000;-63
2023/04/08 04:19:02;;;;;;;10.10;6.70;;;;;;;11.08;69.48;101018.70;107237;1288;1002210;-63
2023/04/08 04:21:28;;;;;;;10.00;6.90;;;;;;;11.16;69.48;101017.09;108092;1288;21995;-64
2023/04/08 04:23:54;;;;;;;10.90;7.60;;;;;;;11.21;69.40;101016.36;108132;1288;22011;-64
2023/04/08 04:26:20;;;;;;;8.70;6.60;;;;;;;11.26;69.23;101013.88;108115;1288;21998;-67
2023/04/08 04:28:45;;;;;;;12.00;7.90;;;;;;;11.34;69.50;101015.24;108092;1288;22064;-63
2023/04/08 04:31:20;;;;;;;10.00;6.40;;;;;;;11.44;69.73;101016.94;108003;1288;22156;-63
2023/04/08 04:33:48;;;;;;;10.50;7.50;;;;;;;11.54;69.99;101020.92;108156;1288;21998;-64
2023/04/08 04:36:14;;;;;;;9.80;6.80;;;;;;;11.63;70.35;101023.33;108203;1288;21983;-67
2023/04/08 04:38:41;;;;;;;10.00;6.60;;;;;;;11.74;70.64;101022.39;108210;1280;22449;-67
2023/04/08 04:41:07;;;;;;;11.10;7.10;;;;;;;11.84;70.94;101023.36;108121;1285;22030;-67
2023/04/08 04:43:33;;;;;;;9.50;7.30;;;;;;;11.96;71.25;101025.73;108211;1285;22457;-65
2023/04/08 04:46:02;;;;;;;9.20;7.40;;;;;;;12.08;71.62;101029.19;108116;1285;22457;-65
2023/04/08 04:48:28;;;;;;;10.20;7.90;;;;;;;12.19;72.42;101026.98;108206;1285;21987;-67
2023/04/08 04:50:55;;;;;;;10.90;8.00;;;;;;;12.32;72.81;101028.48;107288;1277;1002301;-68
2023/04/08 04:53:22;;;;;;;11.40;7.70;;;;;;;12.46;73.21;101026.92;108114;1285;21990;-67
2023/04/08 04:55:49;;;;;;;9.50;7.00;;;;;;;12.60;73.85;101028.37;108120;1285;22160;-69
2023/04/08 04:58:15;;;;;;;10.00;6.90;;;;;;;12.75;74.10;101034.38;108162;1285;21986;-67
2023/04/08 05:00:41;;;;;;;10.10;6.80;;;;;;;12.88;73.69;101034.25;108275;1285;21993;-64
2023/04/08 05:03:08;;;;;;;10.00;7.20;;;;;;;13.03;73.87;101030.89;108117;1285;22060;-69
2023/04/08 05:05:33;;;;;;;9.30;7.30;;;;;;;13.18;73.81;101035.29;108104;1273;22079;-64
2023/04/08 05:08:04;;;;;;;10.70;7.80;;;;;;;13.32;73.69;101036.16;108130;1285;22005;-68
2023/04/08 05:10:30;;;;;;;10.30;8.30;;;;;;;13.47;73.86;101038.98;108182;1285;21984;-64
2023/04/08 05:12:57;;;;;;;12.10;7.70;;;;;;;13.60;74.28;101041.99;108143;1285;22006;-68
2023/04/08 05:15:24;;;;;;;11.30;7.20;;;;;;;13.73;73.84;101043.75;108258;1285;21985;-68
2023/04/08 05:17:50;;;;;;;11.20;8.50;;;;;;;13.82;73.42;101045.36;108191;1285;21985;-69
2023/04/08 05:20:15;;;;;;;12.60;7.40;;;;;;;13.89;73.03;101041.03;108253;1285;22018;-66
2023/04/08 05:22:44;;;;;;;12.00;7.40;;;;;;;13.96;73.14;101036.69;108275;1285;21991;-65
2023/04/08 05:25:10;;;;;;;15.30;8.70;;;;;;;14.06;73.97;101038.48;108286;1285;22053;-69
2023/04/08 05:27:36;;;;;;;36.10;18.50;;;;;;;14.17;73.67;101034.59;108153;1285;21986;-68
2023/04/08 05:30:04;;;;;;;25.30;14.60;;;;;;;14.26;74.03;101036.91;108159;1285;22007;-69
2023/04/08 05:32:31;;;;;;;12.20;8.20;;;;;;;14.37;73.63;101036.55;108308;1285;21985;-68
2023/04/08 05:34:57;;;;;;;10.90;8.50;;;;;;;14.46;73.77;101033.02;108128;1285;21982;-67
2023/04/08 05:37:23;;;;;;;11.20;8.10;;;;;;;14.56;73.66;101035.49;108108;1285;21990;-68
2023/04/08 05:39:49;;;;;;;17.30;11.90;;;;;;;14.65;73.34;101033.92;108161;1285;21998;-67
2023/04/08 05:42:15;;;;;;;16.70;12.50;;;;;;;14.72;72.99;101033.30;108311;1285;21989;-67
2023/04/08 05:44:42;;;;;;;20.50;14.10;;;;;;;14.78;73.35;101035.48;108275;1285;22414;-67
2023/04/08 05:47:08;;;;;;;24.10;18.80;;;;;;;14.86;73.28;101037.96;107457;1285;1002289;-68
2023/04/08 05:49:34;;;;;;;13.00;10.30;;;;;;;14.97;73.63;101033.86;108237;1285;21988;-67
2023/04/08 05:52:00;;;;;;;12.20;8.10;;;;;;;15.09;73.59;101035.92;108270;1285;22021;-67
2023/04/08 05:54:26;;;;;;;10.10;8.20;;;;;;;15.20;73.49;101036.92;108197;1285;22449;-68
2023/04/08 05:56:52;;;;;;;11.90;8.70;;;;;;;15.30;73.93;101039.73;108230;1285;21986;-66
2023/04/08 05:59:18;;;;;;;11.60;9.00;;;;;;;15.49;75.72;101040.04;108162;1285;21986;-67
2023/04/08 06:01:44;;;;;;;11.30;7.60;;;;;;;15.74;75.73;101043.01;108172;1285;22053;-66
2023/04/08 06:04:10;;;;;;;11.10;7.80;;;;;;;15.91;74.52;101048.81;108173;1285;21940;-67
2023/04/08 06:06:39;;;;;;;9.30;7.50;;;;;;;16.05;74.37;101051.33;108147;1285;21986;-67
2023/04/08 06:09:05;;;;;;;11.10;7.70;;;;;;;16.21;74.50;101052.89;108179;1285;21953;-67
2023/04/08 06:11:33;;;;;;;10.00;7.80;;;;;;;16.42;75.94;101051.48;108237;1285;21990;-67
2023/04/08 06:13:59;;;;;;;9.40;7.10;;;;;;;16.69;75.82;101046.88;108238;1285;21989;-66
2023/04/08 06:16:25;;;;;;;10.00;7.30;;;;;;;16.87;74.23;101050.29;108248;1285;21984;-67
2023/04/08 06:18:54;;;;;;;9.90;7.90;;;;;;;16.98;73.80;101053.18;108157;1285;21981;-67
2023/04/08 06:21:20;;;;;;;12.10;8.30;;;;;;;17.15;75.21;101054.46;108185;1280;21998;-66
2023/04/08 06:23:46;;;;;;;9.20;7.90;;;;;;;17.45;76.66;101058.38;108117;1285;21985;-68
2023/04/08 06:26:12;;;;;;;11.80;7.80;;;;;;;17.77;76.59;101062.02;108208;1285;22005;-67
2023/04/08 06:28:38;;;;;;;11.10;8.20;;;;;;;18.08;75.26;101063.54;108310;1285;22053;-67
2023/04/08 06:31:05;;;;;;;9.10;7.50;;;;;;;18.30;74.24;101059.64;108281;1285;21988;-66
2023/04/08 06:33:31;;;;;;;9.10;7.50;;;;;;;18.52;74.19;101060.13;108257;1285;21981;-67
2023/04/08 06:36:04;;;;;;;9.70;7.40;;;;;;;18.73;73.14;101056.39;108172;1285;21984;-67
2023/04/08 06:38:30;;;;;;;9.30;7.60;;;;;;;18.85;71.17;101061.10;108199;1285;21982;-67
2023/04/08 06:41:06;;;;;;;10.40;7.70;;;;;;;18.83;69.30;101064.02;108320;1285;21990;-66
2023/04/08 06:43:33;;;;;;;8.90;6.90;;;;;;;18.81;69.04;101065.89;108297;1285;21982;-66
2023/04/08 06:45:59;;;;;;;7.80;6.30;;;;;;;18.90;70.05;101063.80;108177;1285;23113;-66
2023/04/08 06:48:29;;;;;;;8.40;7.00;;;;;;;19.07;69.29;101066.58;108188;1280;21982;-66
2023/04/08 06:50:55;;;;;;;8.70;6.90;;;;;;;19.16;67.35;101062.34;108212;1281;21993;-67
2023/04/08 06:53:23;;;;;;;9.80;6.80;;;;;;;19.23;67.44;101063.14;108211;1285;21988;-68
2023/04/08 06:55:49;;;;;;;11.00;6.90;;;;;;;19.44;69.80;101065.01;108207;1285;21991;-67
2023/04/08 06:58:15;;;;;;;6.90;6.10;;;;;;;19.84;71.16;101064.02;108184;1285;21995;-68
2023/04/08 07:00:41;;;;;;;7.00;6.10;;;;;;;20.20;70.50;101063.64;108292;1285;21994;-68
2023/04/08 07:03:11;;;;;;;7.10;6.10;;;;;;;20.45;67.28;101062.59;108185;1285;23729;-69
2023/04/08 07:05:37;;;;;;;9.30;6.70;;;;;;;20.58;66.74;101061.67;108220;1285;22021;-67
2023/04/08 07:08:06;;;;;;;8.40;6.30;;;;;;;20.74;67.69;101062.59;108151;1285;21997;-68
2023/04/08 07:10:38;;;;;;;10.00;7.00;;;;;;;21.03;67.96;101063.48;108173;1285;21988;-68
2023/04/08 07:13:04;;;;;;;8.00;6.10;;;;;;;21.21;64.42;101065.00;108250;1285;23625;-68
2023/04/08 07:15:30;;;;;;;7.00;5.90;;;;;;;21.28;65.07;101064.67;108233;1285;21982;-67
2023/04/08 07:17:59;;;;;;;9.90;6.40;;;;;;;21.48;66.61;101062.66;108215;1285;21998;-68
2023/04/08 07:20:25;;;;;;;13.10;7.20;;;;;;;21.74;67.44;101059.48;108163;1285;23701;-68
2023/04/08 07:22:56;;;;;;;9.70;5.60;;;;;;;22.06;67.50;101058.30;108157;1285;21989;-67
2023/04/08 07:25:22;;;;;;;16.20;5.90;;;;;;;22.44;67.64;101058.93;108287;1285;21997;-67
2023/04/08 07:27:48;;;;;;;8.30;5.70;;;;;;;22.73;66.84;101056.20;108116;1285;21974;-67
2023/04/08 07:30:15;;;;;;;7.40;5.40;;;;;;;22.88;65.19;101056.47;108182;1285;21986;-67
2023/04/08 07:32:41;;;;;;;7.30;5.50;;;;;;;23.00;64.97;101055.65;108107;1285;21996;-68
2023/04/08 07:35:10;;;;;;;11.70;5.90;;;;;;;23.16;63.44;101059.27;108166;1285;21985;-66
2023/04/08 07:37:37;;;;;;;10.20;5.80;;;;;;;23.24;60.49;101059.57;108160;1285;21975;-67
2023/04/08 07:40:03;;;;;;;6.60;4.30;;;;;;;23.25;58.59;101058.98;108043;1285;21988;-67
2023/04/08 07:42:29;;;;;;;5.90;5.00;;;;;;;23.26;57.18;101061.27;108134;1286;21989;-67
2023/04/08 07:44:55;;;;;;;6.60;4.90;;;;;;;23.14;54.34;101062.45;108226;1284;22619;-67
2023/04/08 07:47:21;;;;;;;7.70;5.20;;;;;;;22.93;56.15;101065.50;108366;1285;22080;-68
2023/04/08 07:49:47;;;;;;;8.40;5.20;;;;;;;23.08;59.59;101062.92;108279;1284;21997;-68
2023/04/08 07:52:13;;;;;;;6.50;5.40;;;;;;;23.41;60.04;101061.19;108259;1277;22000;-70
2023/04/08 07:54:40;;;;;;;7.00;5.00;;;;;;;23.73;59.95;101060.84;108101;1283;21980;-68
2023/04/08 07:57:06;;;;;;;5.90;4.90;;;;;;;24.09;58.75;101057.90;108302;1284;21983;-69
2023/04/08 07:59:35;;;;;;;4.70;4.00;;;;;;;24.36;57.99;101053.80;108108;1284;23656;-68
2023/04/08 08:02:01;;;;;;;5.60;4.50;;;;;;;24.69;58.83;101049.11;108111;1284;21980;-68
2023/04/08 08:04:27;;;;;;;5.70;4.40;;;;;;;24.98;57.72;101050.24;108097;1281;21986;-69
2023/04/08 08:06:52;;;;;;;5.50;4.30;;;;;;;25.13;55.17;101049.87;108189;1284;22119;-68
2023/04/08 08:09:19;;;;;;;6.00;4.50;;;;;;;25.19;53.24;101055.63;108128;1280;21985;-69
2023/04/08 08:11:45;;;;;;;6.10;5.10;;;;;;;24.96;49.46;101052.54;108271;1284;24319;-68
2023/04/08 08:14:18;;;;;;;6.10;5.10;;;;;;;24.61;51.06;101055.56;108164;1284;21994;-67
2023/04/08 08:16:46;;;;;;;5.60;4.50;;;;;;;24.39;52.08;101055.05;108090;1285;21988;-66
2023/04/08 08:19:12;;;;;;;4.80;3.70;;;;;;;24.29;48.41;101058.36;108187;1285;21995;-68
2023/04/08 08:21:40;;;;;;;5.20;4.00;;;;;;;24.03;48.10;101056.62;108321;1286;22019;-68
2023/04/08 08:24:07;;;;;;;5.70;4.00;;;;;;;23.77;47.85;101058.29;108091;1284;21991;-70
2023/04/08 08:26:36;;;;;;;5.00;3.60;;;;;;;23.36;47.75;101062.17;108180;1285;21988;-67
2023/04/08 08:29:01;;;;;;;4.70;3.70;;;;;;;23.01;47.55;101066.54;108086;1284;21994;-68
2023/04/08 08:31:27;;;;;;;5.50;4.40;;;;;;;22.66;46.82;101070.49;108211;1284;21995;-67
2023/04/08 08:33:53;;;;;;;6.20;4.80;;;;;;;22.52;48.59;101069.80;108161;1284;21996;-68
2023/04/08 08:36:21;;;;;;;6.70;4.80;;;;;;;22.79;51.83;101065.88;108135;1280;22023;-67
2023/04/08 08:38:47;;;;;;;5.70;4.70;;;;;;;23.41;53.96;101058.11;108239;1284;21984;-69
2023/04/08 08:41:12;;;;;;;6.80;4.60;;;;;;;23.90;53.19;101059.52;108223;1284;21978;-66
2023/04/08 08:43:39;;;;;;;4.60;3.80;;;;;;;24.24;49.27;101058.10;108266;1284;21986;-66
2023/04/08 08:46:08;;;;;;;4.50;3.60;;;;;;;24.11;46.40;101060.83;108417;1284;22459;-68
2023/04/08 08:48:37;;;;;;;4.20;3.30;;;;;;;23.85;47.93;101057.27;108305;1284;21993;-69
2023/04/08 08:51:10;;;;;;;5.50;3.90;;;;;;;23.75;49.23;101058.90;108299;1283;21999;-68
2023/04/08 08:53:37;;;;;;;5.00;3.90;;;;;;;23.80;49.98;101059.70;108142;1284;21986;-68
2023/04/08 08:56:04;;;;;;;4.40;3.50;;;;;;;23.95;49.74;101056.89;108113;1284;21983;-67
2023/04/08 08:58:33;;;;;;;5.10;3.80;;;;;;;24.03;48.82;101055.38;108119;1284;23012;-69
2023/04/08 09:00:59;;;;;;;4.30;3.40;;;;;;;24.17;50.33;101052.80;108239;1284;21983;-68
2023/04/08 09:03:26;;;;;;;4.90;3.70;;;;;;;24.43;50.66;101053.76;108112;1284;22000;-69
2023/04/08 09:05:57;;;;;;;6.20;4.30;;;;;;;24.71;50.01;101050.48;108151;1284;22040;-68
2023/04/08 09:08:34;;;;;;;4.40;3.60;;;;;;;24.90;49.32;101048.25;108306;1280;21982;-69
2023/04/08 09:11:22;;;;;;;4.00;3.40;;;;;;;24.71;45.34;101051.69;108403;1280;21992;-68
2023/04/08 09:13:48;;;;;;;5.40;3.50;;;;;;;24.27;45.47;101056.09;108260;1283;21983;-67
2023/04/08 09:16:16;;;;;;;5.50;3.70;;;;;;;24.05;45.95;101057.93;108158;1284;21981;-68
2023/04/08 09:18:43;;;;;;;5.00;3.50;;;;;;;23.91;46.89;101059.80;108275;1284;21983;-68
2023/04/08 09:21:10;;;;;;;5.00;3.40;;;;;;;23.84;47.33;101058.41;108332;1284;21978;-68
2023/04/08 09:23:56;;;;;;;4.00;2.90;;;;;;;23.81;46.97;101058.95;108201;1284;22027;-68
2023/04/08 09:26:23;;;;;;;4.80;2.90;;;;;;;23.82;47.72;101060.48;108164;1284;21998;-68
2023/04/08 09:29:00;;;;;;;4.60;3.20;;;;;;;24.00;48.48;101056.27;108150;1284;21984;-69
2023/04/08 09:31:27;;;;;;;4.70;2.90;;;;;;;24.38;49.41;101055.52;108249;1284;22758;-68
2023/04/08 09:33:59;;;;;;;4.90;3.40;;;;;;;24.55;45.60;101060.59;108189;1284;21983;-69
2023/04/08 09:36:26;;;;;;;4.80;3.30;;;;;;;24.37;46.37;101060.04;108213;1282;22445;-69
2023/04/08 09:38:52;;;;;;;5.40;3.20;;;;;;;24.15;43.35;101060.02;108159;1280;21972;-67
2023/04/08 09:41:22;;;;;;;4.80;3.30;;;;;;;23.85;42.57;101061.95;108203;1284;21987;-67
2023/04/08 09:43:50;;;;;;;4.20;2.70;;;;;;;23.57;43.49;101062.95;108201;1284;21980;-67
2023/04/08 09:46:31;;;;;;;5.20;3.40;;;;;;;23.39;43.49;101057.50;108218;1284;21985;-69
2023/04/08 09:49:04;;;;;;;4.50;2.80;;;;;;;23.19;43.71;101059.31;108121;1284;21982;-67
2023/04/08 09:51:39;;;;;;;3.90;2.90;;;;;;;23.05;44.52;101064.17;108250;1284;21993;-69
2023/04/08 09:54:09;;;;;;;4.50;2.90;;;;;;;22.95;45.41;101066.16;108193;1284;21985;-68
2023/04/08 09:56:40;;;;;;;3.70;2.50;;;;;;;22.82;44.27;101064.66;108337;1284;21988;-66
2023/04/08 09:59:16;;;;;;;10.90;4.20;;;;;;;22.72;43.87;101060.55;108156;1285;21985;-66
2023/04/08 10:01:49;;;;;;;5.40;3.20;;;;;;;22.64;45.23;101062.39;108245;1285;21988;-67
2023/04/08 10:04:19;;;;;;;15.00;4.20;;;;;;;22.51;45.68;101065.91;108176;1285;21985;-67
2023/04/08 10:07:00;;;;;;;10.30;3.90;;;;;;;22.46;46.46;101068.87;108201;1285;21986;-66
2023/04/08 10:09:26;;;;;;;24.70;5.40;;;;;;;22.42;46.52;101068.33;108092;1284;22002;-67
2023/04/08 10:11:52;;;;;;;6.40;4.00;;;;;;;22.37;48.14;101070.54;108114;1284;23720;-63
2023/04/08 10:14:20;;;;;;;6.40;4.20;;;;;;;22.27;45.37;101066.74;108182;1284;22018;-67
2023/04/08 10:16:47;;;;;;;7.50;3.80;;;;;;;22.15;47.46;101069.30;108227;1284;23376;-63
2023/04/08 10:19:37;;;;;;;12.20;5.10;;;;;;;22.12;47.88;101072.27;108261;1284;22003;-63
2023/04/08 10:22:05;;;;;;;;;;;;;;;22.12;48.02;101079.10;108290;1284;23048;-66
2023/04/08 10:24:31;;;;;;;4.60;3.40;;;;;;;22.09;47.65;101081.02;108341;1281;21981;-64
2023/04/08 10:27:01;;;;;;;8.30;3.40;;;;;;;21.98;46.56;101076.91;108328;1284;21986;-66
2023/04/08 10:29:27;;;;;;;11.50;4.10;;;;;;;21.84;47.73;101076.88;108118;1284;21994;-67
2023/04/08 10:31:53;;;;;;;9.00;4.40;;;;;;;21.80;48.30;101077.64;108097;1285;21998;-66
2023/04/08 10:34:20;;;;;;;12.70;4.50;;;;;;;21.77;47.28;101078.83;108133;1285;21988;-65
2023/04/08 10:36:46;;;;;;;7.70;3.90;;;;;;;21.64;47.66;101076.73;106610;1285;1004061;-64
2023/04/08 10:39:17;;;;;;;9.50;4.20;;;;;;;21.59;46.00;101077.73;108123;1285;21982;-70
2023/04/08 10:41:47;;;;;;;5.00;3.70;;;;;;;21.52;46.64;101073.91;108110;1285;21983;-64
2023/04/08 10:44:20;;;;;;;7.70;3.80;;;;;;;21.45;46.59;101075.67;108150;1285;21986;-65
2023/04/08 10:46:46;;;;;;;4.20;3.30;;;;;;;21.42;47.29;101075.60;108163;1284;21995;-64
2023/04/08 10:49:13;;;;;;;5.70;3.40;;;;;;;21.35;45.45;101071.81;108247;1284;21999;-68
2023/04/08 10:51:47;;;;;;;11.40;4.50;;;;;;;21.25;46.33;101070.13;108222;1283;22002;-67
2023/04/08 10:54:15;;;;;;;7.50;3.70;;;;;;;21.23;47.41;101070.41;108161;1284;21981;-66
2023/04/08 10:56:51;;;;;;;5.90;3.90;;;;;;;21.24;47.23;101070.88;108221;1284;23712;-67
2023/04/08 10:59:29;;;;;;;6.00;4.00;;;;;;;21.25;47.19;101067.46;108130;1285;21980;-65
2023/04/08 11:02:00;;;;;;;7.00;3.80;;;;;;;21.26;47.14;101072.23;108226;1284;22017;-68
2023/04/08 11:04:26;;;;;;;6.40;4.00;;;;;;;21.19;46.49;101069.73;108382;1284;22106;-62
2023/04/08 11:06:52;;;;;;;6.80;4.10;;;;;;;21.05;46.55;101068.75;108329;1284;21984;-68
2023/04/08 11:09:18;;;;;;;5.60;4.20;;;;;;;20.96;47.46;101067.52;108293;1284;22175;-65
2023/04/08 11:11:45;;;;;;;6.10;4.00;;;;;;;20.92;46.08;101067.70;108204;1284;22920;-69
2023/04/08 11:14:12;;;;;;;9.10;4.10;;;;;;;20.83;46.50;101068.29;108179;1284;22445;-67